sensor_id;sensor_type;location;lat;lon;timestamp;P1;durP1;ratioP1;P2;durP2;ratioP2
71566;SDS011;59403;47.456;19.120;2022-10-03T00:01:38;2.72;;;1.10;;
71566;SDS011;59403;47.456;19.120;2022-10-03T00:04:20;2.90;;;1.25;;
71566;SDS011;59403;47.456;19.120;2022-10-03T00:07:00;3.47;;;1.08;;
71566;SDS011;59403;47.456;19.120;2022-10-03T00:09:40;3.13;;;1.00;;
71566;SDS011;59403;47.456;19.120;2022-10-03T00:12:30;2.83;;;0.90;;
71566;SDS011;59403;47.456;19.120;2022-10-03T00:15:04;1.83;;;1.00;;
71566;SDS011;59403;47.456;19.120;2022-10-03T00:17:40;1.80;;;1.02;;
71566;SDS011;59403;47.456;19.120;2022-10-03T00:20:27;2.37;;;1.12;;
71566;SDS011;59403;47.456;19.120;2022-10-03T00:23:06;3.20;;;1.00;;
71566;SDS011;59403;47.456;19.120;2022-10-03T00:25:41;1.83;;;0.85;;
71566;SDS011;59403;47.456;19.120;2022-10-03T00:28:17;2.72;;;1.15;;
71566;SDS011;59403;47.456;19.120;2022-10-03T00:30:58;2.45;;;1.23;;
71566;SDS011;59403;47.456;19.120;2022-10-03T00:33:36;4.15;;;1.23;;
71566;SDS011;59403;47.456;19.120;2022-10-03T00:36:13;1.90;;;1.17;;
71566;SDS011;59403;47.456;19.120;2022-10-03T00:38:52;2.10;;;1.17;;
71566;SDS011;59403;47.456;19.120;2022-10-03T00:50:39;2.57;;;0.90;;
71566;SDS011;59403;47.456;19.120;2022-10-03T00:53:18;2.40;;;1.00;;
71566;SDS011;59403;47.456;19.120;2022-10-03T00:55:59;2.75;;;1.12;;
71566;SDS011;59403;47.456;19.120;2022-10-03T00:58:47;1.90;;;1.10;;
71566;SDS011;59403;47.456;19.120;2022-10-03T01:04:05;1.80;;;1.13;;
71566;SDS011;59403;47.456;19.120;2022-10-03T01:06:42;3.28;;;1.10;;
71566;SDS011;59403;47.456;19.120;2022-10-03T01:09:28;2.40;;;1.20;;
71566;SDS011;59403;47.456;19.120;2022-10-03T01:12:08;3.12;;;1.45;;
71566;SDS011;59403;47.456;19.120;2022-10-03T01:14:57;2.10;;;1.15;;
71566;SDS011;59403;47.456;19.120;2022-10-03T01:17:45;2.17;;;1.10;;
71566;SDS011;59403;47.456;19.120;2022-10-03T01:20:25;3.25;;;1.65;;
71566;SDS011;59403;47.456;19.120;2022-10-03T01:23:13;2.72;;;1.40;;
71566;SDS011;59403;47.456;19.120;2022-10-03T01:25:51;3.03;;;1.17;;
71566;SDS011;59403;47.456;19.120;2022-10-03T01:28:42;2.53;;;1.12;;
71566;SDS011;59403;47.456;19.120;2022-10-03T01:31:33;1.83;;;1.20;;
71566;SDS011;59403;47.456;19.120;2022-10-03T01:34:09;3.08;;;1.55;;
71566;SDS011;59403;47.456;19.120;2022-10-03T01:36:43;3.80;;;1.40;;
71566;SDS011;59403;47.456;19.120;2022-10-03T01:39:20;3.72;;;1.17;;
71566;SDS011;59403;47.456;19.120;2022-10-03T01:41:54;3.10;;;1.52;;
71566;SDS011;59403;47.456;19.120;2022-10-03T01:44:30;2.57;;;1.10;;
71566;SDS011;59403;47.456;19.120;2022-10-03T01:47:08;3.67;;;1.35;;
71566;SDS011;59403;47.456;19.120;2022-10-03T01:49:44;2.25;;;1.60;;
71566;SDS011;59403;47.456;19.120;2022-10-03T01:52:18;2.65;;;1.40;;
71566;SDS011;59403;47.456;19.120;2022-10-03T01:54:55;3.45;;;1.77;;
71566;SDS011;59403;47.456;19.120;2022-10-03T01:57:28;4.47;;;1.57;;
71566;SDS011;59403;47.456;19.120;2022-10-03T02:00:06;3.85;;;1.60;;
71566;SDS011;59403;47.456;19.120;2022-10-03T02:02:39;3.78;;;1.67;;
71566;SDS011;59403;47.456;19.120;2022-10-03T02:05:11;2.80;;;1.85;;
71566;SDS011;59403;47.456;19.120;2022-10-03T02:07:47;5.87;;;1.90;;
71566;SDS011;59403;47.456;19.120;2022-10-03T02:10:31;3.60;;;1.90;;
71566;SDS011;59403;47.456;19.120;2022-10-03T02:13:07;3.67;;;2.92;;
71566;SDS011;59403;47.456;19.120;2022-10-03T02:15:42;3.47;;;2.30;;
71566;SDS011;59403;47.456;19.120;2022-10-03T02:18:22;2.83;;;2.20;;
71566;SDS011;59403;47.456;19.120;2022-10-03T02:21:04;3.28;;;1.92;;
71566;SDS011;59403;47.456;19.120;2022-10-03T02:23:37;4.10;;;2.30;;
71566;SDS011;59403;47.456;19.120;2022-10-03T02:26:17;4.37;;;2.08;;
71566;SDS011;59403;47.456;19.120;2022-10-03T02:29:00;4.57;;;2.05;;
71566;SDS011;59403;47.456;19.120;2022-10-03T02:38:08;3.53;;;2.10;;
71566;SDS011;59403;47.456;19.120;2022-10-03T02:40:52;3.50;;;2.42;;
71566;SDS011;59403;47.456;19.120;2022-10-03T02:43:47;3.95;;;2.53;;
71566;SDS011;59403;47.456;19.120;2022-10-03T02:49:43;3.65;;;2.30;;
71566;SDS011;59403;47.456;19.120;2022-10-03T02:52:48;5.20;;;2.57;;
71566;SDS011;59403;47.456;19.120;2022-10-03T02:55:58;3.47;;;2.50;;
71566;SDS011;59403;47.456;19.120;2022-10-03T03:02:14;4.65;;;2.80;;
71566;SDS011;59403;47.456;19.120;2022-10-03T03:11:15;5.03;;;2.47;;
71566;SDS011;59403;47.456;19.120;2022-10-03T03:17:10;3.87;;;2.72;;
71566;SDS011;59403;47.456;19.120;2022-10-03T03:23:17;6.00;;;2.50;;
71566;SDS011;59403;47.456;19.120;2022-10-03T03:28:55;4.43;;;2.75;;
71566;SDS011;59403;47.456;19.120;2022-10-03T03:31:32;4.28;;;2.50;;
71566;SDS011;59403;47.456;19.120;2022-10-03T03:34:08;4.85;;;2.83;;
71566;SDS011;59403;47.456;19.120;2022-10-03T03:36:43;6.07;;;2.27;;
71566;SDS011;59403;47.456;19.120;2022-10-03T03:39:26;3.62;;;2.22;;
71566;SDS011;59403;47.456;19.120;2022-10-03T03:42:25;3.78;;;2.03;;
71566;SDS011;59403;47.456;19.120;2022-10-03T03:45:11;4.85;;;2.25;;
71566;SDS011;59403;47.456;19.120;2022-10-03T03:47:54;2.97;;;2.10;;
71566;SDS011;59403;47.456;19.120;2022-10-03T03:50:47;4.50;;;2.03;;
71566;SDS011;59403;47.456;19.120;2022-10-03T03:53:36;3.92;;;2.55;;
71566;SDS011;59403;47.456;19.120;2022-10-03T03:56:26;4.50;;;2.72;;
71566;SDS011;59403;47.456;19.120;2022-10-03T03:59:09;4.07;;;2.42;;
71566;SDS011;59403;47.456;19.120;2022-10-03T04:01:53;5.12;;;2.97;;
71566;SDS011;59403;47.456;19.120;2022-10-03T04:04:37;5.40;;;3.03;;
71566;SDS011;59403;47.456;19.120;2022-10-03T04:07:14;5.45;;;2.62;;
71566;SDS011;59403;47.456;19.120;2022-10-03T04:10:02;4.22;;;2.92;;
71566;SDS011;59403;47.456;19.120;2022-10-03T04:12:48;5.03;;;2.90;;
71566;SDS011;59403;47.456;19.120;2022-10-03T04:15:33;5.80;;;3.05;;
71566;SDS011;59403;47.456;19.120;2022-10-03T04:18:12;5.53;;;2.77;;
71566;SDS011;59403;47.456;19.120;2022-10-03T04:21:11;5.03;;;2.95;;
71566;SDS011;59403;47.456;19.120;2022-10-03T04:24:10;9.32;;;2.87;;
71566;SDS011;59403;47.456;19.120;2022-10-03T04:26:57;8.13;;;3.00;;
71566;SDS011;59403;47.456;19.120;2022-10-03T04:29:41;4.20;;;2.58;;
71566;SDS011;59403;47.456;19.120;2022-10-03T04:32:18;5.10;;;2.70;;
71566;SDS011;59403;47.456;19.120;2022-10-03T04:34:56;5.80;;;2.80;;
71566;SDS011;59403;47.456;19.120;2022-10-03T04:37:38;6.40;;;2.85;;
71566;SDS011;59403;47.456;19.120;2022-10-03T04:40:16;4.35;;;2.70;;
71566;SDS011;59403;47.456;19.120;2022-10-03T04:42:56;7.10;;;2.92;;
71566;SDS011;59403;47.456;19.120;2022-10-03T04:45:35;4.20;;;2.87;;
71566;SDS011;59403;47.456;19.120;2022-10-03T04:48:11;6.00;;;2.87;;
71566;SDS011;59403;47.456;19.120;2022-10-03T04:50:43;5.03;;;2.65;;
71566;SDS011;59403;47.456;19.120;2022-10-03T04:53:21;5.93;;;2.50;;
71566;SDS011;59403;47.456;19.120;2022-10-03T04:56:04;7.90;;;2.78;;
71566;SDS011;59403;47.456;19.120;2022-10-03T04:58:49;5.67;;;2.90;;
71566;SDS011;59403;47.456;19.120;2022-10-03T05:01:23;5.53;;;3.03;;
71566;SDS011;59403;47.456;19.120;2022-10-03T05:04:04;6.20;;;2.92;;
71566;SDS011;59403;47.456;19.120;2022-10-03T05:06:43;5.05;;;2.60;;
71566;SDS011;59403;47.456;19.120;2022-10-03T05:09:22;3.87;;;2.50;;
71566;SDS011;59403;47.456;19.120;2022-10-03T05:11:58;7.17;;;3.17;;
71566;SDS011;59403;47.456;19.120;2022-10-03T05:14:41;5.05;;;2.87;;
71566;SDS011;59403;47.456;19.120;2022-10-03T05:17:15;5.43;;;3.12;;
71566;SDS011;59403;47.456;19.120;2022-10-03T05:20:00;5.00;;;3.00;;
71566;SDS011;59403;47.456;19.120;2022-10-03T05:22:40;5.95;;;3.10;;
71566;SDS011;59403;47.456;19.120;2022-10-03T05:25:17;4.60;;;2.70;;
71566;SDS011;59403;47.456;19.120;2022-10-03T05:27:53;5.40;;;2.70;;
71566;SDS011;59403;47.456;19.120;2022-10-03T05:30:34;4.80;;;2.83;;
71566;SDS011;59403;47.456;19.120;2022-10-03T05:33:06;6.20;;;3.08;;
71566;SDS011;59403;47.456;19.120;2022-10-03T05:35:45;3.80;;;2.30;;
71566;SDS011;59403;47.456;19.120;2022-10-03T05:38:33;6.00;;;2.80;;
71566;SDS011;59403;47.456;19.120;2022-10-03T05:41:49;6.03;;;2.90;;
71566;SDS011;59403;47.456;19.120;2022-10-03T05:44:19;4.90;;;2.83;;
71566;SDS011;59403;47.456;19.120;2022-10-03T05:46:57;6.30;;;2.65;;
71566;SDS011;59403;47.456;19.120;2022-10-03T05:49:37;4.43;;;2.60;;
71566;SDS011;59403;47.456;19.120;2022-10-03T05:52:32;6.20;;;2.90;;
71566;SDS011;59403;47.456;19.120;2022-10-03T05:55:14;5.35;;;2.40;;
71566;SDS011;59403;47.456;19.120;2022-10-03T05:58:17;4.90;;;2.25;;
71566;SDS011;59403;47.456;19.120;2022-10-03T06:01:04;5.93;;;2.67;;
71566;SDS011;59403;47.456;19.120;2022-10-03T06:04:08;6.25;;;2.42;;
71566;SDS011;59403;47.456;19.120;2022-10-03T06:07:00;4.60;;;2.00;;
71566;SDS011;59403;47.456;19.120;2022-10-03T06:09:51;5.87;;;2.60;;
71566;SDS011;59403;47.456;19.120;2022-10-03T06:12:41;5.18;;;2.50;;
71566;SDS011;59403;47.456;19.120;2022-10-03T06:18:25;4.82;;;2.33;;
71566;SDS011;59403;47.456;19.120;2022-10-03T06:21:16;5.53;;;2.20;;
71566;SDS011;59403;47.456;19.120;2022-10-03T06:24:18;5.40;;;2.17;;
71566;SDS011;59403;47.456;19.120;2022-10-03T06:27:08;5.85;;;2.12;;
71566;SDS011;59403;47.456;19.120;2022-10-03T06:33:11;3.35;;;1.70;;
71566;SDS011;59403;47.456;19.120;2022-10-03T06:48:30;5.53;;;1.80;;
71566;SDS011;59403;47.456;19.120;2022-10-03T06:51:15;5.57;;;1.93;;
71566;SDS011;59403;47.456;19.120;2022-10-03T06:54:12;19.83;;;2.20;;
71566;SDS011;59403;47.456;19.120;2022-10-03T06:57:08;6.78;;;1.90;;
71566;SDS011;59403;47.456;19.120;2022-10-03T07:00:08;4.20;;;1.30;;
71566;SDS011;59403;47.456;19.120;2022-10-03T07:12:38;3.25;;;1.70;;
71566;SDS011;59403;47.456;19.120;2022-10-03T07:15:21;4.50;;;1.55;;
71566;SDS011;59403;47.456;19.120;2022-10-03T07:18:03;5.75;;;1.92;;
71566;SDS011;59403;47.456;19.120;2022-10-03T07:24:16;4.53;;;1.58;;
71566;SDS011;59403;47.456;19.120;2022-10-03T07:27:20;5.32;;;1.48;;
71566;SDS011;59403;47.456;19.120;2022-10-03T07:30:07;4.95;;;1.55;;
71566;SDS011;59403;47.456;19.120;2022-10-03T07:35:49;5.10;;;1.57;;
71566;SDS011;59403;47.456;19.120;2022-10-03T07:45:03;4.03;;;1.55;;
71566;SDS011;59403;47.456;19.120;2022-10-03T07:50:49;5.20;;;1.53;;
71566;SDS011;59403;47.456;19.120;2022-10-03T07:56:31;4.40;;;2.58;;
71566;SDS011;59403;47.456;19.120;2022-10-03T08:02:46;4.93;;;1.52;;
71566;SDS011;59403;47.456;19.120;2022-10-03T08:05:48;5.50;;;1.90;;
71566;SDS011;59403;47.456;19.120;2022-10-03T08:14:30;3.50;;;1.10;;
71566;SDS011;59403;47.456;19.120;2022-10-03T08:17:11;6.40;;;1.40;;
71566;SDS011;59403;47.456;19.120;2022-10-03T08:20:10;4.00;;;1.70;;
71566;SDS011;59403;47.456;19.120;2022-10-03T08:22:52;10.27;;;1.70;;
71566;SDS011;59403;47.456;19.120;2022-10-03T08:25:32;3.80;;;1.30;;
71566;SDS011;59403;47.456;19.120;2022-10-03T08:28:25;6.82;;;1.92;;
71566;SDS011;59403;47.456;19.120;2022-10-03T08:31:35;5.25;;;1.50;;
71566;SDS011;59403;47.456;19.120;2022-10-03T08:37:49;5.53;;;1.35;;
71566;SDS011;59403;47.456;19.120;2022-10-03T08:57:57;5.37;;;1.48;;
71566;SDS011;59403;47.456;19.120;2022-10-03T09:00:49;6.68;;;1.62;;
71566;SDS011;59403;47.456;19.120;2022-10-03T09:07:09;6.00;;;1.43;;
71566;SDS011;59403;47.456;19.120;2022-10-03T09:13:01;6.28;;;1.65;;
71566;SDS011;59403;47.456;19.120;2022-10-03T09:19:25;6.25;;;1.45;;
71566;SDS011;59403;47.456;19.120;2022-10-03T09:22:21;5.17;;;1.50;;
71566;SDS011;59403;47.456;19.120;2022-10-03T09:25:20;5.53;;;1.50;;
71566;SDS011;59403;47.456;19.120;2022-10-03T09:31:05;5.28;;;1.37;;
71566;SDS011;59403;47.456;19.120;2022-10-03T09:34:11;3.92;;;1.30;;
71566;SDS011;59403;47.456;19.120;2022-10-03T09:40:29;6.30;;;1.60;;
71566;SDS011;59403;47.456;19.120;2022-10-03T09:43:34;3.62;;;1.30;;
71566;SDS011;59403;47.456;19.120;2022-10-03T09:46:31;6.30;;;1.40;;
71566;SDS011;59403;47.456;19.120;2022-10-03T09:49:41;2.78;;;1.20;;
71566;SDS011;59403;47.456;19.120;2022-10-03T09:52:34;4.53;;;1.40;;
71566;SDS011;59403;47.456;19.120;2022-10-03T09:55:23;3.72;;;1.25;;
71566;SDS011;59403;47.456;19.120;2022-10-03T09:58:14;2.58;;;1.60;;
71566;SDS011;59403;47.456;19.120;2022-10-03T10:01:15;6.00;;;1.40;;
71566;SDS011;59403;47.456;19.120;2022-10-03T10:10:02;5.62;;;1.70;;
71566;SDS011;59403;47.456;19.120;2022-10-03T10:13:06;3.78;;;1.30;;
71566;SDS011;59403;47.456;19.120;2022-10-03T10:15:50;4.28;;;1.20;;
71566;SDS011;59403;47.456;19.120;2022-10-03T10:18:54;6.32;;;1.23;;
71566;SDS011;59403;47.456;19.120;2022-10-03T10:27:56;3.47;;;1.40;;
71566;SDS011;59403;47.456;19.120;2022-10-03T10:30:50;2.85;;;1.02;;
71566;SDS011;59403;47.456;19.120;2022-10-03T10:33:42;4.60;;;1.40;;
71566;SDS011;59403;47.456;19.120;2022-10-03T10:37:09;3.90;;;1.03;;
71566;SDS011;59403;47.456;19.120;2022-10-03T10:40:30;7.03;;;1.00;;
71566;SDS011;59403;47.456;19.120;2022-10-03T10:46:21;2.60;;;1.10;;
71566;SDS011;59403;47.456;19.120;2022-10-03T10:49:32;2.47;;;1.02;;
71566;SDS011;59403;47.456;19.120;2022-10-03T11:11:42;4.47;;;1.17;;
71566;SDS011;59403;47.456;19.120;2022-10-03T11:15:09;6.78;;;1.20;;
71566;SDS011;59403;47.456;19.120;2022-10-03T11:18:12;3.22;;;0.80;;
71566;SDS011;59403;47.456;19.120;2022-10-03T11:21:16;2.70;;;0.80;;
71566;SDS011;59403;47.456;19.120;2022-10-03T11:27:45;3.12;;;1.27;;
71566;SDS011;59403;47.456;19.120;2022-10-03T11:30:51;3.00;;;1.00;;
71566;SDS011;59403;47.456;19.120;2022-10-03T11:36:46;4.22;;;1.05;;
71566;SDS011;59403;47.456;19.120;2022-10-03T11:39:31;2.17;;;0.90;;
71566;SDS011;59403;47.456;19.120;2022-10-03T11:42:12;2.55;;;0.73;;
71566;SDS011;59403;47.456;19.120;2022-10-03T11:44:49;4.70;;;1.35;;
71566;SDS011;59403;47.456;19.120;2022-10-03T11:47:39;2.90;;;1.15;;
71566;SDS011;59403;47.456;19.120;2022-10-03T11:50:15;3.35;;;1.20;;
71566;SDS011;59403;47.456;19.120;2022-10-03T11:53:02;4.00;;;1.00;;
71566;SDS011;59403;47.456;19.120;2022-10-03T11:55:50;2.22;;;0.98;;
71566;SDS011;59403;47.456;19.120;2022-10-03T11:58:35;3.08;;;0.70;;
71566;SDS011;59403;47.456;19.120;2022-10-03T12:01:17;2.85;;;0.77;;
71566;SDS011;59403;47.456;19.120;2022-10-03T12:03:55;3.33;;;1.08;;
71566;SDS011;59403;47.456;19.120;2022-10-03T12:06:37;2.63;;;0.80;;
71566;SDS011;59403;47.456;19.120;2022-10-03T12:09:36;3.33;;;0.93;;
71566;SDS011;59403;47.456;19.120;2022-10-03T12:12:16;4.10;;;1.17;;
71566;SDS011;59403;47.456;19.120;2022-10-03T12:14:54;1.85;;;0.82;;
71566;SDS011;59403;47.456;19.120;2022-10-03T12:17:29;3.30;;;1.10;;
71566;SDS011;59403;47.456;19.120;2022-10-03T12:20:02;3.90;;;1.00;;
71566;SDS011;59403;47.456;19.120;2022-10-03T12:22:38;3.20;;;1.12;;
71566;SDS011;59403;47.456;19.120;2022-10-03T12:25:16;4.37;;;1.40;;
71566;SDS011;59403;47.456;19.120;2022-10-03T12:27:51;3.70;;;0.98;;
71566;SDS011;59403;47.456;19.120;2022-10-03T12:30:28;2.47;;;1.08;;
71566;SDS011;59403;47.456;19.120;2022-10-03T12:33:09;2.80;;;1.03;;
71566;SDS011;59403;47.456;19.120;2022-10-03T12:35:48;3.58;;;0.90;;
71566;SDS011;59403;47.456;19.120;2022-10-03T12:38:30;3.97;;;1.00;;
71566;SDS011;59403;47.456;19.120;2022-10-03T12:41:11;1.98;;;1.00;;
71566;SDS011;59403;47.456;19.120;2022-10-03T12:43:50;3.15;;;0.90;;
71566;SDS011;59403;47.456;19.120;2022-10-03T12:46:36;3.70;;;1.00;;
71566;SDS011;59403;47.456;19.120;2022-10-03T12:49:13;2.28;;;1.05;;
71566;SDS011;59403;47.456;19.120;2022-10-03T12:51:49;4.75;;;1.30;;
71566;SDS011;59403;47.456;19.120;2022-10-03T13:00:26;2.07;;;1.23;;
71566;SDS011;59403;47.456;19.120;2022-10-03T13:03:09;2.15;;;0.90;;
71566;SDS011;59403;47.456;19.120;2022-10-03T13:09:03;1.45;;;0.75;;
71566;SDS011;59403;47.456;19.120;2022-10-03T13:11:44;2.30;;;0.88;;
71566;SDS011;59403;47.456;19.120;2022-10-03T13:14:38;4.13;;;0.93;;
71566;SDS011;59403;47.456;19.120;2022-10-03T13:17:24;2.40;;;0.70;;
71566;SDS011;59403;47.456;19.120;2022-10-03T13:19:59;3.00;;;0.90;;
71566;SDS011;59403;47.456;19.120;2022-10-03T13:22:33;2.85;;;1.00;;
71566;SDS011;59403;47.456;19.120;2022-10-03T13:25:09;2.72;;;0.75;;
71566;SDS011;59403;47.456;19.120;2022-10-03T13:27:44;2.17;;;0.70;;
71566;SDS011;59403;47.456;19.120;2022-10-03T13:30:17;1.70;;;0.70;;
71566;SDS011;59403;47.456;19.120;2022-10-03T13:32:53;3.00;;;0.75;;
71566;SDS011;59403;47.456;19.120;2022-10-03T13:35:48;2.35;;;0.60;;
71566;SDS011;59403;47.456;19.120;2022-10-03T13:41:52;2.60;;;0.90;;
71566;SDS011;59403;47.456;19.120;2022-10-03T13:44:41;6.03;;;2.10;;
71566;SDS011;59403;47.456;19.120;2022-10-03T13:47:28;3.50;;;1.12;;
71566;SDS011;59403;47.456;19.120;2022-10-03T13:50:23;1.80;;;0.60;;
71566;SDS011;59403;47.456;19.120;2022-10-03T13:53:18;2.50;;;0.70;;
71566;SDS011;59403;47.456;19.120;2022-10-03T13:56:07;3.03;;;0.90;;
71566;SDS011;59403;47.456;19.120;2022-10-03T13:58:41;1.87;;;0.70;;
71566;SDS011;59403;47.456;19.120;2022-10-03T14:01:36;1.87;;;0.80;;
71566;SDS011;59403;47.456;19.120;2022-10-03T14:07:13;3.05;;;1.05;;
71566;SDS011;59403;47.456;19.120;2022-10-03T14:10:01;2.27;;;0.70;;
71566;SDS011;59403;47.456;19.120;2022-10-03T14:12:45;2.40;;;1.02;;
71566;SDS011;59403;47.456;19.120;2022-10-03T14:15:28;2.33;;;0.80;;
71566;SDS011;59403;47.456;19.120;2022-10-03T14:24:22;3.90;;;0.70;;
71566;SDS011;59403;47.456;19.120;2022-10-03T14:27:10;3.08;;;0.62;;
71566;SDS011;59403;47.456;19.120;2022-10-03T14:30:02;3.22;;;1.00;;
71566;SDS011;59403;47.456;19.120;2022-10-03T14:32:58;2.45;;;0.70;;
71566;SDS011;59403;47.456;19.120;2022-10-03T14:35:47;1.77;;;0.80;;
71566;SDS011;59403;47.456;19.120;2022-10-03T14:41:26;1.75;;;0.75;;
71566;SDS011;59403;47.456;19.120;2022-10-03T14:44:06;3.42;;;0.80;;
71566;SDS011;59403;47.456;19.120;2022-10-03T14:46:40;3.10;;;0.60;;
71566;SDS011;59403;47.456;19.120;2022-10-03T14:49:31;2.15;;;0.90;;
71566;SDS011;59403;47.456;19.120;2022-10-03T14:52:01;1.47;;;0.80;;
71566;SDS011;59403;47.456;19.120;2022-10-03T14:54:41;1.80;;;0.68;;
71566;SDS011;59403;47.456;19.120;2022-10-03T14:57:20;3.53;;;1.00;;
71566;SDS011;59403;47.456;19.120;2022-10-03T14:59:59;2.60;;;0.90;;
71566;SDS011;59403;47.456;19.120;2022-10-03T15:02:50;3.47;;;0.95;;
71566;SDS011;59403;47.456;19.120;2022-10-03T15:05:32;1.53;;;0.83;;
71566;SDS011;59403;47.456;19.120;2022-10-03T15:08:11;1.65;;;0.55;;
71566;SDS011;59403;47.456;19.120;2022-10-03T15:10:44;1.87;;;0.70;;
71566;SDS011;59403;47.456;19.120;2022-10-03T15:13:21;1.90;;;0.70;;
71566;SDS011;59403;47.456;19.120;2022-10-03T15:15:58;1.10;;;0.70;;
71566;SDS011;59403;47.456;19.120;2022-10-03T15:18:30;1.40;;;0.50;;
71566;SDS011;59403;47.456;19.120;2022-10-03T15:20:57;2.80;;;0.80;;
71566;SDS011;59403;47.456;19.120;2022-10-03T15:23:25;2.80;;;0.70;;
71566;SDS011;59403;47.456;19.120;2022-10-03T15:25:57;1.55;;;0.90;;
71566;SDS011;59403;47.456;19.120;2022-10-03T15:28:26;3.85;;;0.82;;
71566;SDS011;59403;47.456;19.120;2022-10-03T15:31:05;1.00;;;0.60;;
71566;SDS011;59403;47.456;19.120;2022-10-03T15:33:37;3.30;;;1.17;;
71566;SDS011;59403;47.456;19.120;2022-10-03T15:36:17;2.67;;;0.80;;
71566;SDS011;59403;47.456;19.120;2022-10-03T15:38:52;2.08;;;0.90;;
71566;SDS011;59403;47.456;19.120;2022-10-03T15:41:33;1.75;;;0.80;;
71566;SDS011;59403;47.456;19.120;2022-10-03T15:44:16;2.00;;;0.77;;
71566;SDS011;59403;47.456;19.120;2022-10-03T15:46:52;3.30;;;0.70;;
71566;SDS011;59403;47.456;19.120;2022-10-03T15:49:34;2.33;;;0.85;;
71566;SDS011;59403;47.456;19.120;2022-10-03T15:52:23;3.80;;;0.80;;
71566;SDS011;59403;47.456;19.120;2022-10-03T15:55:03;2.25;;;0.73;;
71566;SDS011;59403;47.456;19.120;2022-10-03T15:57:45;1.70;;;0.63;;
71566;SDS011;59403;47.456;19.120;2022-10-03T16:00:25;2.00;;;0.80;;
71566;SDS011;59403;47.456;19.120;2022-10-03T16:03:10;2.60;;;0.77;;
71566;SDS011;59403;47.456;19.120;2022-10-03T16:05:52;3.22;;;0.75;;
71566;SDS011;59403;47.456;19.120;2022-10-03T16:08:29;2.42;;;0.85;;
71566;SDS011;59403;47.456;19.120;2022-10-03T16:11:00;2.27;;;0.50;;
71566;SDS011;59403;47.456;19.120;2022-10-03T16:13:34;1.85;;;0.70;;
71566;SDS011;59403;47.456;19.120;2022-10-03T16:16:07;3.92;;;0.70;;
71566;SDS011;59403;47.456;19.120;2022-10-03T16:18:45;2.37;;;0.68;;
71566;SDS011;59403;47.456;19.120;2022-10-03T16:21:24;2.45;;;0.82;;
71566;SDS011;59403;47.456;19.120;2022-10-03T16:23:57;3.40;;;0.70;;
71566;SDS011;59403;47.456;19.120;2022-10-03T16:26:28;2.50;;;0.57;;
71566;SDS011;59403;47.456;19.120;2022-10-03T16:29:00;1.75;;;0.60;;
71566;SDS011;59403;47.456;19.120;2022-10-03T16:31:38;5.20;;;1.00;;
71566;SDS011;59403;47.456;19.120;2022-10-03T16:34:11;4.22;;;1.10;;
71566;SDS011;59403;47.456;19.120;2022-10-03T16:36:40;2.67;;;0.90;;
71566;SDS011;59403;47.456;19.120;2022-10-03T16:39:14;3.00;;;0.80;;
71566;SDS011;59403;47.456;19.120;2022-10-03T16:41:46;5.43;;;0.75;;
71566;SDS011;59403;47.456;19.120;2022-10-03T16:44:17;4.50;;;1.00;;
71566;SDS011;59403;47.456;19.120;2022-10-03T16:46:47;2.80;;;1.12;;
71566;SDS011;59403;47.456;19.120;2022-10-03T16:49:29;2.37;;;0.87;;
71566;SDS011;59403;47.456;19.120;2022-10-03T16:52:20;2.28;;;0.85;;
71566;SDS011;59403;47.456;19.120;2022-10-03T16:54:55;2.85;;;0.70;;
71566;SDS011;59403;47.456;19.120;2022-10-03T16:57:28;2.42;;;0.70;;
71566;SDS011;59403;47.456;19.120;2022-10-03T17:00:01;2.50;;;0.80;;
71566;SDS011;59403;47.456;19.120;2022-10-03T17:02:32;3.13;;;0.73;;
71566;SDS011;59403;47.456;19.120;2022-10-03T17:05:06;1.40;;;0.70;;
71566;SDS011;59403;47.456;19.120;2022-10-03T17:07:36;2.42;;;0.95;;
71566;SDS011;59403;47.456;19.120;2022-10-03T17:10:05;3.42;;;1.00;;
71566;SDS011;59403;47.456;19.120;2022-10-03T17:12:49;2.90;;;0.90;;
71566;SDS011;59403;47.456;19.120;2022-10-03T17:15:18;4.20;;;0.70;;
71566;SDS011;59403;47.456;19.120;2022-10-03T17:17:48;2.03;;;0.75;;
71566;SDS011;59403;47.456;19.120;2022-10-03T17:20:31;3.45;;;0.90;;
71566;SDS011;59403;47.456;19.120;2022-10-03T17:23:04;1.35;;;0.43;;
71566;SDS011;59403;47.456;19.120;2022-10-03T17:25:40;3.30;;;1.20;;
71566;SDS011;59403;47.456;19.120;2022-10-03T17:28:18;4.10;;;1.03;;
71566;SDS011;59403;47.456;19.120;2022-10-03T17:30:52;4.40;;;1.25;;
71566;SDS011;59403;47.456;19.120;2022-10-03T17:33:29;2.60;;;1.17;;
71566;SDS011;59403;47.456;19.120;2022-10-03T17:36:09;3.70;;;1.00;;
71566;SDS011;59403;47.456;19.120;2022-10-03T17:38:55;3.30;;;1.02;;
71566;SDS011;59403;47.456;19.120;2022-10-03T17:41:30;3.40;;;1.03;;
71566;SDS011;59403;47.456;19.120;2022-10-03T17:44:08;2.20;;;0.93;;
71566;SDS011;59403;47.456;19.120;2022-10-03T17:46:56;2.85;;;1.10;;
71566;SDS011;59403;47.456;19.120;2022-10-03T17:49:33;2.58;;;1.02;;
71566;SDS011;59403;47.456;19.120;2022-10-03T17:52:14;1.70;;;0.80;;
71566;SDS011;59403;47.456;19.120;2022-10-03T17:54:43;2.60;;;0.70;;
71566;SDS011;59403;47.456;19.120;2022-10-03T17:57:14;2.35;;;0.80;;
71566;SDS011;59403;47.456;19.120;2022-10-03T17:59:53;1.65;;;1.00;;
71566;SDS011;59403;47.456;19.120;2022-10-03T18:02:24;3.47;;;0.98;;
71566;SDS011;59403;47.456;19.120;2022-10-03T18:05:02;2.42;;;1.00;;
71566;SDS011;59403;47.456;19.120;2022-10-03T18:07:37;2.83;;;1.00;;
71566;SDS011;59403;47.456;19.120;2022-10-03T18:10:14;3.22;;;1.00;;
71566;SDS011;59403;47.456;19.120;2022-10-03T18:12:45;2.42;;;1.00;;
71566;SDS011;59403;47.456;19.120;2022-10-03T18:21:12;2.47;;;0.90;;
71566;SDS011;59403;47.456;19.120;2022-10-03T18:23:49;1.62;;;0.82;;
71566;SDS011;59403;47.456;19.120;2022-10-03T18:26:32;4.18;;;1.52;;
71566;SDS011;59403;47.456;19.120;2022-10-03T18:29:08;1.80;;;0.95;;
71566;SDS011;59403;47.456;19.120;2022-10-03T18:31:42;2.45;;;0.93;;
71566;SDS011;59403;47.456;19.120;2022-10-03T18:34:13;6.27;;;1.10;;
71566;SDS011;59403;47.456;19.120;2022-10-03T18:36:44;2.30;;;0.80;;
71566;SDS011;59403;47.456;19.120;2022-10-03T18:39:17;5.53;;;1.40;;
71566;SDS011;59403;47.456;19.120;2022-10-03T18:41:47;2.60;;;1.00;;
71566;SDS011;59403;47.456;19.120;2022-10-03T18:44:18;2.05;;;1.17;;
71566;SDS011;59403;47.456;19.120;2022-10-03T18:46:49;3.17;;;1.10;;
71566;SDS011;59403;47.456;19.120;2022-10-03T18:49:22;2.17;;;1.10;;
71566;SDS011;59403;47.456;19.120;2022-10-03T18:51:52;3.03;;;1.10;;
71566;SDS011;59403;47.456;19.120;2022-10-03T18:54:29;3.53;;;1.17;;
71566;SDS011;59403;47.456;19.120;2022-10-03T18:57:03;2.60;;;1.20;;
71566;SDS011;59403;47.456;19.120;2022-10-03T18:59:34;1.90;;;0.83;;
71566;SDS011;59403;47.456;19.120;2022-10-03T19:02:13;2.85;;;1.17;;
71566;SDS011;59403;47.456;19.120;2022-10-03T19:04:45;2.85;;;1.10;;
71566;SDS011;59403;47.456;19.120;2022-10-03T19:07:19;5.72;;;1.08;;
71566;SDS011;59403;47.456;19.120;2022-10-03T19:10:05;2.53;;;0.85;;
71566;SDS011;59403;47.456;19.120;2022-10-03T19:12:51;3.93;;;1.13;;
71566;SDS011;59403;47.456;19.120;2022-10-03T19:15:32;2.47;;;0.90;;
71566;SDS011;59403;47.456;19.120;2022-10-03T19:18:12;2.47;;;0.98;;
71566;SDS011;59403;47.456;19.120;2022-10-03T19:20:46;1.90;;;1.20;;
71566;SDS011;59403;47.456;19.120;2022-10-03T19:23:17;4.87;;;1.40;;
71566;SDS011;59403;47.456;19.120;2022-10-03T19:25:53;2.93;;;1.40;;
71566;SDS011;59403;47.456;19.120;2022-10-03T19:28:24;3.70;;;1.30;;
71566;SDS011;59403;47.456;19.120;2022-10-03T19:30:58;2.35;;;0.98;;